LSZR Airport Information

Runway Information
Runway 10 Length 0 ft width 0 ft
Elevation 1306 ft Threshold 0 ft Heading 0
Runway 28 Length 0 ft Width 0 ft
Elevation 1306 ft Threshold 0 ft Heading 0
Runway 10L Length 1969 ft width 75 ft
Elevation 0 ft Threshold 0 ft Heading 97
Runway 28R Length 1969 ft Width 75 ft
Elevation 0 ft Threshold 0 ft Heading 277
Runway 10R Length 4922 ft width 98 ft
Elevation 1306 ft Threshold 328 ft Heading 99
Runway 28L Length 4922 ft Width 98 ft
Elevation 1306 ft Threshold 246 ft Heading 279
Airport Frequencies
Type ACC Name ZURICH RAD Frequency 133.9 MHZ
Type ARR Name ZURICH ARR Frequency 119.925 MHZ
Type ATIS Name ATIS Frequency 123.775 MHZ
Type FIS Name Zurich Inf Frequency 124.7 MHZ
Type GND Name GND Frequency 121.8 MHZ
Type TWR Name TWR Frequency 118.65 MHZ
Airport Navaids
Airport Weather Information & NOTAM
ADDS - METARS form results

(1543 UTC 25 June 2018)
 
METAR text: LSZR 251520Z 06004KT 360V140 9999 FEW050 21/10 Q1022 NOSIG RMK M
Conditions at: LSZR (RHEINECK/ALTENRH, CH) observed 1520 UTC 25 June 2018
Temperature: 21.0°C (70°F)
Dewpoint: 10.0°C (50°F) [RH = 49%]
Pressure (altimeter): 30.18 inches Hg (1022.0 mb)
Winds: from the ENE (60 degrees) at 5 MPH (4 knots; 2.1 m/s)
Visibility: 6 or more miles (10+ km)
Ceiling: at least 12,000 feet AGL
Clouds: few clouds at 5000 feet AGL
Weather: no significant weather observed at this time

METAR text: LSZR 251450Z AUTO 06004KT 360V130 CAVOK 20/09 Q1022
Conditions at: LSZR (RHEINECK/ALTENRH, CH) observed 1450 UTC 25 June 2018
Temperature: 20.0°C (68°F)
Dewpoint: 9.0°C (48°F) [RH = 49%]
Pressure (altimeter): 30.18 inches Hg (1022.0 mb)
Winds: from the ENE (60 degrees) at 5 MPH (4 knots; 2.1 m/s)
Visibility: 6 or more miles (10+ km)
Ceiling: ceiling and visibility are OK
Clouds: unknown
Weather: no significant weather observed at this time